sensor_id;sensor_type;location;lat;lon;timestamp;temperature;humidity
3678;DHT22;1855;50.934;6.958;2022-09-09T00:00:25;17.60;78.80
3678;DHT22;1855;50.934;6.958;2022-09-09T00:02:58;17.50;79.70
3678;DHT22;1855;50.934;6.958;2022-09-09T00:05:32;17.60;78.80
3678;DHT22;1855;50.934;6.958;2022-09-09T00:08:04;17.50;78.70
3678;DHT22;1855;50.934;6.958;2022-09-09T00:10:34;17.50;78.90
3678;DHT22;1855;50.934;6.958;2022-09-09T00:13:13;17.40;78.90
3678;DHT22;1855;50.934;6.958;2022-09-09T00:15:50;17.40;79.90
3678;DHT22;1855;50.934;6.958;2022-09-09T00:18:25;17.40;79.20
3678;DHT22;1855;50.934;6.958;2022-09-09T00:20:58;17.40;80.00
3678;DHT22;1855;50.934;6.958;2022-09-09T00:23:32;17.30;80.80
3678;DHT22;1855;50.934;6.958;2022-09-09T00:26:04;17.30;79.80
3678;DHT22;1855;50.934;6.958;2022-09-09T00:28:36;17.30;79.70
3678;DHT22;1855;50.934;6.958;2022-09-09T00:31:13;17.30;79.80
3678;DHT22;1855;50.934;6.958;2022-09-09T00:33:40;17.30;79.80
3678;DHT22;1855;50.934;6.958;2022-09-09T00:36:13;17.40;78.90
3678;DHT22;1855;50.934;6.958;2022-09-09T00:38:43;17.40;79.00
3678;DHT22;1855;50.934;6.958;2022-09-09T00:41:17;17.40;79.00
3678;DHT22;1855;50.934;6.958;2022-09-09T00:43:54;17.40;77.80
3678;DHT22;1855;50.934;6.958;2022-09-09T00:46:47;17.30;77.30
3678;DHT22;1855;50.934;6.958;2022-09-09T00:49:24;17.30;77.40
3678;DHT22;1855;50.934;6.958;2022-09-09T00:52:02;17.40;76.70
3678;DHT22;1855;50.934;6.958;2022-09-09T00:54:38;17.30;76.50
3678;DHT22;1855;50.934;6.958;2022-09-09T00:57:25;17.30;76.60
3678;DHT22;1855;50.934;6.958;2022-09-09T00:59:55;17.30;76.50
3678;DHT22;1855;50.934;6.958;2022-09-09T01:02:31;17.20;76.90
3678;DHT22;1855;50.934;6.958;2022-09-09T01:05:05;17.20;77.50
3678;DHT22;1855;50.934;6.958;2022-09-09T01:07:34;17.20;76.80
3678;DHT22;1855;50.934;6.958;2022-09-09T01:10:05;17.20;77.00
3678;DHT22;1855;50.934;6.958;2022-09-09T01:12:38;17.20;77.10
3678;DHT22;1855;50.934;6.958;2022-09-09T01:15:12;17.20;76.90
3678;DHT22;1855;50.934;6.958;2022-09-09T01:17:48;17.20;77.20
3678;DHT22;1855;50.934;6.958;2022-09-09T01:20:20;17.20;77.00
3678;DHT22;1855;50.934;6.958;2022-09-09T01:22:57;17.10;77.90
3678;DHT22;1855;50.934;6.958;2022-09-09T01:28:02;17.10;77.70
3678;DHT22;1855;50.934;6.958;2022-09-09T01:30:30;17.10;79.00
3678;DHT22;1855;50.934;6.958;2022-09-09T01:32:58;17.00;78.70
3678;DHT22;1855;50.934;6.958;2022-09-09T01:35:38;17.00;79.20
3678;DHT22;1855;50.934;6.958;2022-09-09T01:38:07;17.00;80.30
3678;DHT22;1855;50.934;6.958;2022-09-09T01:40:34;16.90;79.90
3678;DHT22;1855;50.934;6.958;2022-09-09T01:43:02;17.00;79.40
3678;DHT22;1855;50.934;6.958;2022-09-09T01:45:30;16.90;80.20
3678;DHT22;1855;50.934;6.958;2022-09-09T01:47:58;16.90;80.20
3678;DHT22;1855;50.934;6.958;2022-09-09T01:50:25;16.90;80.20
3678;DHT22;1855;50.934;6.958;2022-09-09T01:52:55;16.90;80.50
3678;DHT22;1855;50.934;6.958;2022-09-09T01:55:29;16.90;80.60
3678;DHT22;1855;50.934;6.958;2022-09-09T01:58:04;16.90;80.20
3678;DHT22;1855;50.934;6.958;2022-09-09T02:00:38;16.90;80.30
3678;DHT22;1855;50.934;6.958;2022-09-09T02:03:14;16.90;80.10
3678;DHT22;1855;50.934;6.958;2022-09-09T02:05:49;16.90;80.20
3678;DHT22;1855;50.934;6.958;2022-09-09T02:08:20;16.90;80.10
3678;DHT22;1855;50.934;6.958;2022-09-09T02:10:54;16.90;79.80
3678;DHT22;1855;50.934;6.958;2022-09-09T02:13:25;17.00;79.20
3678;DHT22;1855;50.934;6.958;2022-09-09T02:15:54;17.00;79.30
3678;DHT22;1855;50.934;6.958;2022-09-09T02:18:26;17.00;79.50
3678;DHT22;1855;50.934;6.958;2022-09-09T02:20:55;17.00;79.90
3678;DHT22;1855;50.934;6.958;2022-09-09T02:23:23;16.90;79.90
3678;DHT22;1855;50.934;6.958;2022-09-09T02:25:51;16.90;80.60
3678;DHT22;1855;50.934;6.958;2022-09-09T02:28:21;16.90;80.20
3678;DHT22;1855;50.934;6.958;2022-09-09T02:30:50;17.00;80.10
3678;DHT22;1855;50.934;6.958;2022-09-09T02:33:21;17.00;80.00
3678;DHT22;1855;50.934;6.958;2022-09-09T02:35:51;17.00;80.10
3678;DHT22;1855;50.934;6.958;2022-09-09T02:38:21;16.90;80.00
3678;DHT22;1855;50.934;6.958;2022-09-09T02:40:48;17.00;79.90
3678;DHT22;1855;50.934;6.958;2022-09-09T02:43:15;17.00;79.90
3678;DHT22;1855;50.934;6.958;2022-09-09T02:45:50;17.00;79.00
3678;DHT22;1855;50.934;6.958;2022-09-09T02:48:27;17.00;79.50
3678;DHT22;1855;50.934;6.958;2022-09-09T02:51:02;17.00;80.30
3678;DHT22;1855;50.934;6.958;2022-09-09T02:53:39;17.00;79.50
3678;DHT22;1855;50.934;6.958;2022-09-09T02:56:11;17.00;79.60
3678;DHT22;1855;50.934;6.958;2022-09-09T02:58:40;17.00;79.60
3678;DHT22;1855;50.934;6.958;2022-09-09T03:01:07;17.00;80.00
3678;DHT22;1855;50.934;6.958;2022-09-09T03:03:35;17.00;80.10
3678;DHT22;1855;50.934;6.958;2022-09-09T03:06:03;17.00;80.30
3678;DHT22;1855;50.934;6.958;2022-09-09T03:08:31;17.00;80.60
3678;DHT22;1855;50.934;6.958;2022-09-09T03:10:58;17.00;80.30
3678;DHT22;1855;50.934;6.958;2022-09-09T03:13:26;17.00;80.40
3678;DHT22;1855;50.934;6.958;2022-09-09T03:15:54;16.90;80.90
3678;DHT22;1855;50.934;6.958;2022-09-09T03:18:21;17.00;80.60
3678;DHT22;1855;50.934;6.958;2022-09-09T03:20:49;17.00;80.70
3678;DHT22;1855;50.934;6.958;2022-09-09T03:23:18;17.00;81.20
3678;DHT22;1855;50.934;6.958;2022-09-09T03:25:48;16.90;81.20
3678;DHT22;1855;50.934;6.958;2022-09-09T03:28:15;16.90;81.20
3678;DHT22;1855;50.934;6.958;2022-09-09T03:30:42;16.90;80.90
3678;DHT22;1855;50.934;6.958;2022-09-09T03:33:09;17.00;81.00
3678;DHT22;1855;50.934;6.958;2022-09-09T03:35:35;17.00;80.70
3678;DHT22;1855;50.934;6.958;2022-09-09T03:38:04;17.00;80.80
3678;DHT22;1855;50.934;6.958;2022-09-09T03:40:30;17.00;80.70
3678;DHT22;1855;50.934;6.958;2022-09-09T03:42:57;16.90;80.50
3678;DHT22;1855;50.934;6.958;2022-09-09T03:45:25;17.00;80.50
3678;DHT22;1855;50.934;6.958;2022-09-09T03:47:51;17.00;80.30
3678;DHT22;1855;50.934;6.958;2022-09-09T03:50:18;17.10;80.50
3678;DHT22;1855;50.934;6.958;2022-09-09T03:52:45;17.00;80.90
3678;DHT22;1855;50.934;6.958;2022-09-09T03:55:13;17.00;80.70
3678;DHT22;1855;50.934;6.958;2022-09-09T03:57:40;17.00;81.20
3678;DHT22;1855;50.934;6.958;2022-09-09T04:00:08;17.00;80.60
3678;DHT22;1855;50.934;6.958;2022-09-09T04:02:35;17.00;81.00
3678;DHT22;1855;50.934;6.958;2022-09-09T04:05:02;17.00;81.10
3678;DHT22;1855;50.934;6.958;2022-09-09T04:07:29;16.90;81.20
3678;DHT22;1855;50.934;6.958;2022-09-09T04:09:56;17.00;81.40
3678;DHT22;1855;50.934;6.958;2022-09-09T04:12:24;16.90;81.40
3678;DHT22;1855;50.934;6.958;2022-09-09T04:14:51;17.00;80.70
3678;DHT22;1855;50.934;6.958;2022-09-09T04:17:18;17.00;80.60
3678;DHT22;1855;50.934;6.958;2022-09-09T04:19:45;17.00;80.80
3678;DHT22;1855;50.934;6.958;2022-09-09T04:22:12;16.90;80.90
3678;DHT22;1855;50.934;6.958;2022-09-09T04:24:38;16.90;81.40
3678;DHT22;1855;50.934;6.958;2022-09-09T04:27:05;16.90;81.60
3678;DHT22;1855;50.934;6.958;2022-09-09T04:29:33;16.90;81.30
3678;DHT22;1855;50.934;6.958;2022-09-09T04:32:01;16.90;81.60
3678;DHT22;1855;50.934;6.958;2022-09-09T04:34:27;17.00;81.60
3678;DHT22;1855;50.934;6.958;2022-09-09T04:36:55;16.90;81.30
3678;DHT22;1855;50.934;6.958;2022-09-09T04:39:22;16.90;82.00
3678;DHT22;1855;50.934;6.958;2022-09-09T04:41:49;16.90;81.20
3678;DHT22;1855;50.934;6.958;2022-09-09T04:44:16;16.90;80.90
3678;DHT22;1855;50.934;6.958;2022-09-09T04:46:44;17.00;79.70
3678;DHT22;1855;50.934;6.958;2022-09-09T04:49:10;17.10;79.40
3678;DHT22;1855;50.934;6.958;2022-09-09T04:51:37;17.00;79.70
3678;DHT22;1855;50.934;6.958;2022-09-09T04:54:04;17.00;80.10
3678;DHT22;1855;50.934;6.958;2022-09-09T04:56:31;17.00;79.60
3678;DHT22;1855;50.934;6.958;2022-09-09T04:58:58;17.00;80.30
3678;DHT22;1855;50.934;6.958;2022-09-09T05:01:25;17.00;80.50
3678;DHT22;1855;50.934;6.958;2022-09-09T05:03:53;17.10;80.40
3678;DHT22;1855;50.934;6.958;2022-09-09T05:06:21;17.10;79.60
3678;DHT22;1855;50.934;6.958;2022-09-09T05:08:49;17.10;80.20
3678;DHT22;1855;50.934;6.958;2022-09-09T05:11:17;17.10;80.00
3678;DHT22;1855;50.934;6.958;2022-09-09T05:13:45;17.10;80.10
3678;DHT22;1855;50.934;6.958;2022-09-09T05:16:12;17.10;79.60
3678;DHT22;1855;50.934;6.958;2022-09-09T05:18:39;17.10;80.90
3678;DHT22;1855;50.934;6.958;2022-09-09T05:21:07;17.10;83.10
3678;DHT22;1855;50.934;6.958;2022-09-09T05:23:34;17.10;83.50
3678;DHT22;1855;50.934;6.958;2022-09-09T05:26:03;17.00;86.40
3678;DHT22;1855;50.934;6.958;2022-09-09T05:28:30;16.90;87.10
3678;DHT22;1855;50.934;6.958;2022-09-09T05:30:57;16.80;88.10
3678;DHT22;1855;50.934;6.958;2022-09-09T05:33:26;16.70;89.90
3678;DHT22;1855;50.934;6.958;2022-09-09T05:35:57;16.60;90.00
3678;DHT22;1855;50.934;6.958;2022-09-09T05:38:26;16.60;90.10
3678;DHT22;1855;50.934;6.958;2022-09-09T05:40:53;16.60;89.80
3678;DHT22;1855;50.934;6.958;2022-09-09T05:43:20;16.50;89.90
3678;DHT22;1855;50.934;6.958;2022-09-09T05:45:47;16.50;89.90
3678;DHT22;1855;50.934;6.958;2022-09-09T05:48:14;16.50;87.90
3678;DHT22;1855;50.934;6.958;2022-09-09T05:50:41;16.50;88.00
3678;DHT22;1855;50.934;6.958;2022-09-09T05:53:10;16.60;88.30
3678;DHT22;1855;50.934;6.958;2022-09-09T05:55:38;16.50;87.70
3678;DHT22;1855;50.934;6.958;2022-09-09T05:58:07;16.60;87.80
3678;DHT22;1855;50.934;6.958;2022-09-09T06:00:34;16.50;88.60
3678;DHT22;1855;50.934;6.958;2022-09-09T06:03:02;16.60;87.20
3678;DHT22;1855;50.934;6.958;2022-09-09T06:05:29;16.60;86.80
3678;DHT22;1855;50.934;6.958;2022-09-09T06:07:56;16.70;86.20
3678;DHT22;1855;50.934;6.958;2022-09-09T06:10:23;16.80;85.00
3678;DHT22;1855;50.934;6.958;2022-09-09T06:12:53;16.80;83.70
3678;DHT22;1855;50.934;6.958;2022-09-09T06:15:20;16.90;83.80
3678;DHT22;1855;50.934;6.958;2022-09-09T06:17:47;16.90;84.50
3678;DHT22;1855;50.934;6.958;2022-09-09T06:20:20;17.00;82.20
3678;DHT22;1855;50.934;6.958;2022-09-09T06:22:47;17.00;82.00
3678;DHT22;1855;50.934;6.958;2022-09-09T06:25:14;17.00;81.70
3678;DHT22;1855;50.934;6.958;2022-09-09T06:27:41;17.00;82.50
3678;DHT22;1855;50.934;6.958;2022-09-09T06:30:10;17.00;81.70
3678;DHT22;1855;50.934;6.958;2022-09-09T06:32:37;17.10;80.20
3678;DHT22;1855;50.934;6.958;2022-09-09T06:35:05;17.10;81.30
3678;DHT22;1855;50.934;6.958;2022-09-09T06:37:33;17.10;81.60
3678;DHT22;1855;50.934;6.958;2022-09-09T06:40:00;17.10;80.30
3678;DHT22;1855;50.934;6.958;2022-09-09T06:42:27;17.10;80.60
3678;DHT22;1855;50.934;6.958;2022-09-09T06:44:53;17.10;81.30
3678;DHT22;1855;50.934;6.958;2022-09-09T06:47:21;17.20;80.30
3678;DHT22;1855;50.934;6.958;2022-09-09T06:49:50;17.30;80.30
3678;DHT22;1855;50.934;6.958;2022-09-09T06:52:16;17.30;79.10
3678;DHT22;1855;50.934;6.958;2022-09-09T06:54:44;17.30;80.40
3678;DHT22;1855;50.934;6.958;2022-09-09T06:57:10;17.40;80.20
3678;DHT22;1855;50.934;6.958;2022-09-09T06:59:37;17.40;79.20
3678;DHT22;1855;50.934;6.958;2022-09-09T07:02:04;17.60;78.40
3678;DHT22;1855;50.934;6.958;2022-09-09T07:04:32;17.70;77.70
3678;DHT22;1855;50.934;6.958;2022-09-09T07:06:59;17.90;76.30
3678;DHT22;1855;50.934;6.958;2022-09-09T07:09:26;17.90;75.10
3678;DHT22;1855;50.934;6.958;2022-09-09T07:11:55;18.10;75.20
3678;DHT22;1855;50.934;6.958;2022-09-09T07:14:24;18.20;74.30
3678;DHT22;1855;50.934;6.958;2022-09-09T07:16:52;18.30;73.40
3678;DHT22;1855;50.934;6.958;2022-09-09T07:19:19;18.40;72.40
3678;DHT22;1855;50.934;6.958;2022-09-09T07:21:47;18.50;69.60
3678;DHT22;1855;50.934;6.958;2022-09-09T07:24:14;18.60;69.70
3678;DHT22;1855;50.934;6.958;2022-09-09T07:26:41;18.70;69.00
3678;DHT22;1855;50.934;6.958;2022-09-09T07:29:09;18.80;69.20
3678;DHT22;1855;50.934;6.958;2022-09-09T07:31:39;18.90;67.90
3678;DHT22;1855;50.934;6.958;2022-09-09T07:34:06;18.90;67.60
3678;DHT22;1855;50.934;6.958;2022-09-09T07:36:35;19.00;66.30
3678;DHT22;1855;50.934;6.958;2022-09-09T07:39:05;19.20;66.60
3678;DHT22;1855;50.934;6.958;2022-09-09T07:41:34;19.30;65.80
3678;DHT22;1855;50.934;6.958;2022-09-09T07:44:05;19.50;66.00
3678;DHT22;1855;50.934;6.958;2022-09-09T07:46:33;19.80;65.40
3678;DHT22;1855;50.934;6.958;2022-09-09T07:49:00;20.10;62.90
3678;DHT22;1855;50.934;6.958;2022-09-09T07:51:29;20.20;61.00
3678;DHT22;1855;50.934;6.958;2022-09-09T07:53:58;20.30;61.70
3678;DHT22;1855;50.934;6.958;2022-09-09T07:56:28;20.30;60.40
3678;DHT22;1855;50.934;6.958;2022-09-09T07:58:56;20.10;59.90
3678;DHT22;1855;50.934;6.958;2022-09-09T08:01:26;20.00;59.90
3678;DHT22;1855;50.934;6.958;2022-09-09T08:03:55;19.80;60.70
3678;DHT22;1855;50.934;6.958;2022-09-09T08:06:24;19.70;60.10
3678;DHT22;1855;50.934;6.958;2022-09-09T08:08:52;19.50;60.40
3678;DHT22;1855;50.934;6.958;2022-09-09T08:11:21;19.40;61.10
3678;DHT22;1855;50.934;6.958;2022-09-09T08:13:51;19.30;61.30
3678;DHT22;1855;50.934;6.958;2022-09-09T08:16:20;19.30;61.60
3678;DHT22;1855;50.934;6.958;2022-09-09T08:18:48;19.20;62.20
3678;DHT22;1855;50.934;6.958;2022-09-09T08:21:17;19.20;63.00
3678;DHT22;1855;50.934;6.958;2022-09-09T08:23:45;19.10;62.30
3678;DHT22;1855;50.934;6.958;2022-09-09T08:26:14;19.20;62.20
3678;DHT22;1855;50.934;6.958;2022-09-09T08:28:42;19.20;61.60
3678;DHT22;1855;50.934;6.958;2022-09-09T08:31:13;19.10;61.80
3678;DHT22;1855;50.934;6.958;2022-09-09T08:33:41;19.20;61.70
3678;DHT22;1855;50.934;6.958;2022-09-09T08:36:12;19.40;61.50
3678;DHT22;1855;50.934;6.958;2022-09-09T08:38:40;19.70;58.80
3678;DHT22;1855;50.934;6.958;2022-09-09T08:41:21;20.00;58.80
3678;DHT22;1855;50.934;6.958;2022-09-09T08:44:00;20.10;57.80
3678;DHT22;1855;50.934;6.958;2022-09-09T08:46:33;20.20;58.00
3678;DHT22;1855;50.934;6.958;2022-09-09T08:49:11;20.30;57.90
3678;DHT22;1855;50.934;6.958;2022-09-09T08:51:42;20.30;57.00
3678;DHT22;1855;50.934;6.958;2022-09-09T08:54:09;20.20;56.10
3678;DHT22;1855;50.934;6.958;2022-09-09T08:56:36;20.10;56.00
3678;DHT22;1855;50.934;6.958;2022-09-09T08:59:03;20.00;57.90
3678;DHT22;1855;50.934;6.958;2022-09-09T09:01:41;19.90;55.60
3678;DHT22;1855;50.934;6.958;2022-09-09T09:07:08;19.80;56.50
3678;DHT22;1855;50.934;6.958;2022-09-09T09:09:40;20.00;56.10
3678;DHT22;1855;50.934;6.958;2022-09-09T09:12:15;20.10;55.30
3678;DHT22;1855;50.934;6.958;2022-09-09T09:14:43;20.20;55.20
3678;DHT22;1855;50.934;6.958;2022-09-09T09:17:15;20.20;55.10
3678;DHT22;1855;50.934;6.958;2022-09-09T09:19:44;20.20;54.90
3678;DHT22;1855;50.934;6.958;2022-09-09T09:22:17;20.20;55.50
3678;DHT22;1855;50.934;6.958;2022-09-09T09:24:50;20.20;54.70
3678;DHT22;1855;50.934;6.958;2022-09-09T09:27:22;20.20;55.70
3678;DHT22;1855;50.934;6.958;2022-09-09T09:29:55;20.10;55.00
3678;DHT22;1855;50.934;6.958;2022-09-09T09:32:28;19.90;55.70
3678;DHT22;1855;50.934;6.958;2022-09-09T09:34:58;19.80;56.40
3678;DHT22;1855;50.934;6.958;2022-09-09T09:37:28;19.70;56.20
3678;DHT22;1855;50.934;6.958;2022-09-09T09:39:56;19.60;56.60
3678;DHT22;1855;50.934;6.958;2022-09-09T09:42:22;19.60;56.90
3678;DHT22;1855;50.934;6.958;2022-09-09T09:44:50;19.60;57.20
3678;DHT22;1855;50.934;6.958;2022-09-09T09:47:18;19.60;58.40
3678;DHT22;1855;50.934;6.958;2022-09-09T09:49:53;19.70;57.70
3678;DHT22;1855;50.934;6.958;2022-09-09T09:52:22;19.80;58.60
3678;DHT22;1855;50.934;6.958;2022-09-09T09:54:50;19.80;58.40
3678;DHT22;1855;50.934;6.958;2022-09-09T09:57:18;19.80;58.00
3678;DHT22;1855;50.934;6.958;2022-09-09T10:00:01;19.90;58.60
3678;DHT22;1855;50.934;6.958;2022-09-09T10:02:37;20.00;57.30
3678;DHT22;1855;50.934;6.958;2022-09-09T10:05:13;20.10;57.50
3678;DHT22;1855;50.934;6.958;2022-09-09T10:07:41;20.40;55.70
3678;DHT22;1855;50.934;6.958;2022-09-09T10:10:15;20.50;56.30
3678;DHT22;1855;50.934;6.958;2022-09-09T10:12:53;20.60;56.10
3678;DHT22;1855;50.934;6.958;2022-09-09T10:15:33;20.60;56.80
3678;DHT22;1855;50.934;6.958;2022-09-09T10:18:13;20.60;53.60
3678;DHT22;1855;50.934;6.958;2022-09-09T10:20:50;20.50;55.00
3678;DHT22;1855;50.934;6.958;2022-09-09T10:23:29;20.40;55.10
3678;DHT22;1855;50.934;6.958;2022-09-09T10:26:16;20.30;55.10
3678;DHT22;1855;50.934;6.958;2022-09-09T10:29:01;20.20;54.60
3678;DHT22;1855;50.934;6.958;2022-09-09T10:31:37;20.10;55.00
3678;DHT22;1855;50.934;6.958;2022-09-09T10:34:18;20.00;55.40
3678;DHT22;1855;50.934;6.958;2022-09-09T10:36:49;20.00;55.10
3678;DHT22;1855;50.934;6.958;2022-09-09T10:39:27;20.00;55.00
3678;DHT22;1855;50.934;6.958;2022-09-09T10:42:04;20.10;55.40
3678;DHT22;1855;50.934;6.958;2022-09-09T10:44:46;20.20;55.30
3678;DHT22;1855;50.934;6.958;2022-09-09T10:47:35;20.40;54.70
3678;DHT22;1855;50.934;6.958;2022-09-09T10:50:35;20.50;54.00
3678;DHT22;1855;50.934;6.958;2022-09-09T10:53:16;20.50;54.30
3678;DHT22;1855;50.934;6.958;2022-09-09T10:55:51;20.60;53.90
3678;DHT22;1855;50.934;6.958;2022-09-09T10:58:22;20.50;54.50
3678;DHT22;1855;50.934;6.958;2022-09-09T11:00:52;20.50;54.30
3678;DHT22;1855;50.934;6.958;2022-09-09T11:03:21;20.70;53.70
3678;DHT22;1855;50.934;6.958;2022-09-09T11:05:53;20.90;53.10
3678;DHT22;1855;50.934;6.958;2022-09-09T11:08:26;21.10;53.30
3678;DHT22;1855;50.934;6.958;2022-09-09T11:10:58;21.10;51.70
3678;DHT22;1855;50.934;6.958;2022-09-09T11:13:30;21.20;52.40
3678;DHT22;1855;50.934;6.958;2022-09-09T11:16:04;21.20;52.50
3678;DHT22;1855;50.934;6.958;2022-09-09T11:18:38;21.10;52.80
3678;DHT22;1855;50.934;6.958;2022-09-09T11:21:13;21.10;51.70
3678;DHT22;1855;50.934;6.958;2022-09-09T11:23:47;21.10;52.10
3678;DHT22;1855;50.934;6.958;2022-09-09T11:26:21;21.00;52.10
3678;DHT22;1855;50.934;6.958;2022-09-09T11:28:59;20.80;52.70
3678;DHT22;1855;50.934;6.958;2022-09-09T11:31:41;20.80;53.20
3678;DHT22;1855;50.934;6.958;2022-09-09T11:34:23;20.70;52.70
3678;DHT22;1855;50.934;6.958;2022-09-09T11:37:08;20.70;52.50
3678;DHT22;1855;50.934;6.958;2022-09-09T11:42:47;20.70;53.00
3678;DHT22;1855;50.934;6.958;2022-09-09T11:45:24;20.80;53.00
3678;DHT22;1855;50.934;6.958;2022-09-09T11:47:55;20.80;52.90
3678;DHT22;1855;50.934;6.958;2022-09-09T11:50:34;20.80;52.10
3678;DHT22;1855;50.934;6.958;2022-09-09T11:53:19;20.90;52.70
3678;DHT22;1855;50.934;6.958;2022-09-09T11:56:09;21.00;52.30
3678;DHT22;1855;50.934;6.958;2022-09-09T11:58:43;21.10;51.50
3678;DHT22;1855;50.934;6.958;2022-09-09T12:01:38;21.10;50.40
3678;DHT22;1855;50.934;6.958;2022-09-09T12:04:28;21.00;50.70
3678;DHT22;1855;50.934;6.958;2022-09-09T12:06:59;20.90;51.10
3678;DHT22;1855;50.934;6.958;2022-09-09T12:09:44;20.90;51.20
3678;DHT22;1855;50.934;6.958;2022-09-09T12:12:25;20.80;51.40
3678;DHT22;1855;50.934;6.958;2022-09-09T12:14:58;20.70;51.40
3678;DHT22;1855;50.934;6.958;2022-09-09T12:17:27;20.70;52.30
3678;DHT22;1855;50.934;6.958;2022-09-09T12:20:03;20.70;51.30
3678;DHT22;1855;50.934;6.958;2022-09-09T12:22:40;20.70;51.60
3678;DHT22;1855;50.934;6.958;2022-09-09T12:25:19;20.70;51.80
3678;DHT22;1855;50.934;6.958;2022-09-09T12:28:01;20.70;51.50
3678;DHT22;1855;50.934;6.958;2022-09-09T12:30:32;20.80;52.20
3678;DHT22;1855;50.934;6.958;2022-09-09T12:33:02;20.90;51.00
3678;DHT22;1855;50.934;6.958;2022-09-09T12:35:30;21.00;51.70
3678;DHT22;1855;50.934;6.958;2022-09-09T12:38:00;21.00;50.90
3678;DHT22;1855;50.934;6.958;2022-09-09T12:40:29;21.10;50.50
3678;DHT22;1855;50.934;6.958;2022-09-09T12:42:58;21.00;51.20
3678;DHT22;1855;50.934;6.958;2022-09-09T12:45:29;21.00;51.30
3678;DHT22;1855;50.934;6.958;2022-09-09T12:47:58;20.90;51.40
3678;DHT22;1855;50.934;6.958;2022-09-09T12:50:29;20.80;51.60
3678;DHT22;1855;50.934;6.958;2022-09-09T12:52:58;20.80;52.10
3678;DHT22;1855;50.934;6.958;2022-09-09T12:55:28;20.80;52.50
3678;DHT22;1855;50.934;6.958;2022-09-09T12:57:58;20.90;53.60
3678;DHT22;1855;50.934;6.958;2022-09-09T13:00:26;21.00;51.90
3678;DHT22;1855;50.934;6.958;2022-09-09T13:02:54;21.30;52.40
3678;DHT22;1855;50.934;6.958;2022-09-09T13:05:23;21.50;51.70
3678;DHT22;1855;50.934;6.958;2022-09-09T13:07:51;21.80;50.80
3678;DHT22;1855;50.934;6.958;2022-09-09T13:10:24;21.80;50.00
3678;DHT22;1855;50.934;6.958;2022-09-09T13:12:53;21.70;49.80
3678;DHT22;1855;50.934;6.958;2022-09-09T13:15:24;21.50;49.80
3678;DHT22;1855;50.934;6.958;2022-09-09T13:17:55;21.30;50.00
3678;DHT22;1855;50.934;6.958;2022-09-09T13:20:23;21.40;50.70
3678;DHT22;1855;50.934;6.958;2022-09-09T13:22:51;21.50;50.40
3678;DHT22;1855;50.934;6.958;2022-09-09T13:25:22;21.50;50.70
3678;DHT22;1855;50.934;6.958;2022-09-09T13:27:59;21.60;50.30
3678;DHT22;1855;50.934;6.958;2022-09-09T13:30:30;21.60;50.00
3678;DHT22;1855;50.934;6.958;2022-09-09T13:33:18;21.60;50.40
3678;DHT22;1855;50.934;6.958;2022-09-09T13:35:50;21.60;51.10
3678;DHT22;1855;50.934;6.958;2022-09-09T13:38:17;21.80;51.00
3678;DHT22;1855;50.934;6.958;2022-09-09T13:40:55;22.20;49.70
3678;DHT22;1855;50.934;6.958;2022-09-09T13:43:24;22.40;49.10
3678;DHT22;1855;50.934;6.958;2022-09-09T13:45:58;22.30;49.60
3678;DHT22;1855;50.934;6.958;2022-09-09T13:48:25;22.10;50.60
3678;DHT22;1855;50.934;6.958;2022-09-09T13:50:58;22.30;50.70
3678;DHT22;1855;50.934;6.958;2022-09-09T13:53:25;22.60;49.40
3678;DHT22;1855;50.934;6.958;2022-09-09T13:55:53;23.00;49.00
3678;DHT22;1855;50.934;6.958;2022-09-09T13:58:19;23.40;48.10
3678;DHT22;1855;50.934;6.958;2022-09-09T14:00:48;23.70;46.50
3678;DHT22;1855;50.934;6.958;2022-09-09T14:03:16;23.80;46.00
3678;DHT22;1855;50.934;6.958;2022-09-09T14:05:44;23.40;46.90
3678;DHT22;1855;50.934;6.958;2022-09-09T14:08:16;22.90;48.40
3678;DHT22;1855;50.934;6.958;2022-09-09T14:10:45;22.40;50.10
3678;DHT22;1855;50.934;6.958;2022-09-09T14:13:12;22.10;51.30
3678;DHT22;1855;50.934;6.958;2022-09-09T14:15:40;21.90;51.70
3678;DHT22;1855;50.934;6.958;2022-09-09T14:18:11;21.70;51.90
3678;DHT22;1855;50.934;6.958;2022-09-09T14:20:39;21.50;53.00
3678;DHT22;1855;50.934;6.958;2022-09-09T14:23:07;21.30;53.50
3678;DHT22;1855;50.934;6.958;2022-09-09T14:25:36;21.20;54.10
3678;DHT22;1855;50.934;6.958;2022-09-09T14:28:03;21.20;54.00
3678;DHT22;1855;50.934;6.958;2022-09-09T14:30:29;21.00;54.00
3678;DHT22;1855;50.934;6.958;2022-09-09T14:32:56;20.90;54.70
3678;DHT22;1855;50.934;6.958;2022-09-09T14:35:23;20.80;55.00
3678;DHT22;1855;50.934;6.958;2022-09-09T14:37:51;20.80;55.60
3678;DHT22;1855;50.934;6.958;2022-09-09T14:40:18;20.80;59.50
3678;DHT22;1855;50.934;6.958;2022-09-09T14:42:44;20.30;71.10
3678;DHT22;1855;50.934;6.958;2022-09-09T14:45:11;19.10;74.30
3678;DHT22;1855;50.934;6.958;2022-09-09T14:47:38;17.90;78.70
3678;DHT22;1855;50.934;6.958;2022-09-09T14:50:06;17.20;83.50
3678;DHT22;1855;50.934;6.958;2022-09-09T14:52:33;16.80;88.00
3678;DHT22;1855;50.934;6.958;2022-09-09T14:55:02;16.60;90.20
3678;DHT22;1855;50.934;6.958;2022-09-09T14:57:28;16.60;90.00
3678;DHT22;1855;50.934;6.958;2022-09-09T14:59:55;16.50;90.90
3678;DHT22;1855;50.934;6.958;2022-09-09T15:02:22;16.60;91.00
3678;DHT22;1855;50.934;6.958;2022-09-09T15:04:49;16.70;91.50
3678;DHT22;1855;50.934;6.958;2022-09-09T15:07:16;16.80;91.60
3678;DHT22;1855;50.934;6.958;2022-09-09T15:09:44;16.80;90.90
3678;DHT22;1855;50.934;6.958;2022-09-09T15:12:14;16.90;91.10
3678;DHT22;1855;50.934;6.958;2022-09-09T15:14:41;17.10;91.70
3678;DHT22;1855;50.934;6.958;2022-09-09T15:17:08;17.20;91.30
3678;DHT22;1855;50.934;6.958;2022-09-09T15:19:34;17.40;91.70
3678;DHT22;1855;50.934;6.958;2022-09-09T15:22:02;17.40;90.60
3678;DHT22;1855;50.934;6.958;2022-09-09T15:24:31;17.50;89.50
3678;DHT22;1855;50.934;6.958;2022-09-09T15:26:57;17.60;88.80
3678;DHT22;1855;50.934;6.958;2022-09-09T15:29:26;17.60;89.60
3678;DHT22;1855;50.934;6.958;2022-09-09T15:31:53;17.70;90.60
3678;DHT22;1855;50.934;6.958;2022-09-09T15:34:21;17.80;89.70
3678;DHT22;1855;50.934;6.958;2022-09-09T15:36:48;17.80;89.60
3678;DHT22;1855;50.934;6.958;2022-09-09T15:39:16;17.90;90.30
3678;DHT22;1855;50.934;6.958;2022-09-09T15:41:44;17.90;88.20
3678;DHT22;1855;50.934;6.958;2022-09-09T15:44:12;17.90;87.70
3678;DHT22;1855;50.934;6.958;2022-09-09T15:46:42;17.90;89.30
3678;DHT22;1855;50.934;6.958;2022-09-09T15:49:11;17.90;86.00
3678;DHT22;1855;50.934;6.958;2022-09-09T15:51:40;17.90;88.20
3678;DHT22;1855;50.934;6.958;2022-09-09T15:54:08;18.00;87.30
3678;DHT22;1855;50.934;6.958;2022-09-09T15:56:35;18.00;86.90
3678;DHT22;1855;50.934;6.958;2022-09-09T15:59:02;17.80;88.30
3678;DHT22;1855;50.934;6.958;2022-09-09T16:01:30;17.60;89.20
3678;DHT22;1855;50.934;6.958;2022-09-09T16:03:59;17.30;90.10
3678;DHT22;1855;50.934;6.958;2022-09-09T16:06:26;17.10;90.40
3678;DHT22;1855;50.934;6.958;2022-09-09T16:08:55;17.00;89.90
3678;DHT22;1855;50.934;6.958;2022-09-09T16:11:23;16.90;89.90
3678;DHT22;1855;50.934;6.958;2022-09-09T16:13:51;16.80;90.10
3678;DHT22;1855;50.934;6.958;2022-09-09T16:16:20;16.70;91.30
3678;DHT22;1855;50.934;6.958;2022-09-09T16:18:50;16.70;90.80
3678;DHT22;1855;50.934;6.958;2022-09-09T16:21:20;16.60;91.50
3678;DHT22;1855;50.934;6.958;2022-09-09T16:23:49;16.70;91.30
3678;DHT22;1855;50.934;6.958;2022-09-09T16:26:17;16.70;91.20
3678;DHT22;1855;50.934;6.958;2022-09-09T16:28:44;16.70;91.30
3678;DHT22;1855;50.934;6.958;2022-09-09T16:31:14;16.70;91.30